Time;durP1;ratioP1;P1;durP2;ratioP2;P2;SDS_P1;SDS_P2;PMS_P1;PMS_P2;Temp;Humidity;BMP_temperature;BMP_pressure;BME280_temperature;BME280_humidity;BME280_pressure;Samples;Min_cycle;Max_cycle;Signal;HPM_P1;HPM_P2
2021/11/20 00:01:19;;;;;;;12.68;8.98;;;;;;;16.03;54.49;102538.59;5092741;28;20040;-78
2021/11/20 00:03:47;;;;;;;15.68;9.90;;;;;;;16.02;54.60;102534.97;5091992;28;20075;-79
2021/11/20 00:06:17;;;;;;;14.73;10.10;;;;;;;16.03;54.27;102531.25;5088358;28;20086;-79
2021/11/20 00:08:44;;;;;;;15.50;10.25;;;;;;;16.02;54.59;102534.97;5066266;28;20103;-78
2021/11/20 00:11:14;;;;;;;14.52;9.50;;;;;;;16.05;54.42;102531.16;5088834;28;20044;-78
2021/11/20 00:13:42;;;;;;;13.13;8.55;;;;;;;16.03;54.53;102536.72;5082152;28;20068;-79
2021/11/20 00:16:11;;;;;;;14.60;8.90;;;;;;;16.05;54.46;102522.94;5085391;28;20044;-78
2021/11/20 00:18:39;;;;;;;13.15;8.32;;;;;;;16.04;54.70;102530.28;5079162;28;20054;-78
2021/11/20 00:21:10;;;;;;;14.60;9.30;;;;;;;16.06;54.53;102530.19;5071519;28;20061;-78
2021/11/20 00:23:41;;;;;;;13.70;9.00;;;;;;;16.06;54.69;102527.44;5087009;28;20048;-78
2021/11/20 00:26:10;;;;;;;15.05;9.35;;;;;;;16.04;54.13;102533.03;5084611;28;20052;-78
2021/11/20 00:29:38;;;;;;;13.93;8.82;;;;;;;16.05;54.46;102529.31;5075653;28;20086;-78
2021/11/20 00:31:43;;;;;;;;;;;;;;;15.76;54.96;102527.50;5077318;28;20048;-78
2021/11/20 00:34:12;;;;;;;13.68;7.40;;;;;;;15.99;54.67;102522.34;5090904;28;19966;-79
2021/11/20 00:36:39;;;;;;;12.85;7.85;;;;;;;16.01;54.35;102511.28;5092651;28;20048;-79
2021/11/20 00:39:10;;;;;;;14.02;9.77;;;;;;;16.03;54.57;102517.56;5076635;28;20048;-79
2021/11/20 00:41:36;;;;;;;15.43;9.60;;;;;;;16.00;54.68;102517.75;5085821;28;20075;-77
2021/11/20 00:44:03;;;;;;;13.73;8.48;;;;;;;16.00;54.82;102520.47;5081572;28;20057;-77
2021/11/20 00:46:32;;;;;;;13.57;9.00;;;;;;;16.02;54.39;102529.50;5093522;28;20101;-78
2021/11/20 00:49:00;;;;;;;13.68;9.02;;;;;;;16.02;54.62;102523.13;5083035;28;20082;-78
2021/11/20 00:51:29;;;;;;;15.07;8.95;;;;;;;16.02;54.47;102521.28;5089610;28;20052;-78
2021/11/20 00:53:55;;;;;;;16.25;9.55;;;;;;;15.99;54.71;102522.34;5088139;28;20040;-79
2021/11/20 00:56:24;;;;;;;15.18;10.10;;;;;;;16.01;54.67;102522.25;5088002;28;20117;-78
2021/11/20 00:58:52;;;;;;;14.95;9.43;;;;;;;16.01;54.62;102524.09;5086410;28;20135;-79
2021/11/20 01:01:31;;;;;;;16.40;8.98;;;;;;;16.02;54.15;102528.59;5087079;28;20668;-79
2021/11/20 01:03:58;;;;;;;15.57;10.27;;;;;;;15.98;54.38;102519.69;5084934;28;20048;-79
2021/11/20 01:06:25;;;;;;;16.25;10.52;;;;;;;15.98;54.78;102520.56;5081812;28;20479;-79
2021/11/20 01:08:53;;;;;;;16.38;10.43;;;;;;;15.99;54.20;102518.72;5090414;28;20075;-79
2021/11/20 01:11:20;;;;;;;16.92;10.82;;;;;;;15.98;54.27;102512.34;5076167;28;20160;-78
2021/11/20 01:13:49;;;;;;;14.98;10.05;;;;;;;15.99;54.08;102507.75;5067513;28;20079;-77
2021/11/20 01:16:17;;;;;;;17.08;10.65;;;;;;;15.99;54.40;102505.00;5080550;28;20080;-79
2021/11/20 01:18:45;;;;;;;16.45;10.35;;;;;;;15.98;54.51;102501.38;5088322;28;20065;-79
2021/11/20 01:21:13;;;;;;;16.27;9.93;;;;;;;15.99;54.13;102505.91;5092934;28;20051;-78
2021/11/20 01:23:41;;;;;;;16.60;11.07;;;;;;;15.98;54.28;102501.38;5073879;28;20053;-79
2021/11/20 01:26:09;;;;;;;16.75;10.40;;;;;;;15.98;54.18;102506.00;5088217;28;20106;-79
2021/11/20 01:28:38;;;;;;;16.80;10.43;;;;;;;15.99;54.54;102503.16;5092432;28;20082;-78
2021/11/20 01:31:06;;;;;;;16.83;10.85;;;;;;;15.98;53.97;102493.16;5082728;28;20105;-78
2021/11/20 01:33:34;;;;;;;17.27;10.77;;;;;;;15.99;54.46;102483.97;5076811;28;20409;-78
2021/11/20 01:36:01;;;;;;;15.68;10.75;;;;;;;15.97;54.55;102491.44;5093614;28;20055;-78
2021/11/20 01:38:28;;;;;;;15.88;10.68;;;;;;;15.98;53.97;102495.03;5075113;28;20052;-78
2021/11/20 01:40:55;;;;;;;17.60;11.73;;;;;;;15.98;53.86;102478.59;5089271;28;20052;-78
2021/11/20 01:43:22;;;;;;;16.17;10.27;;;;;;;15.97;54.51;102482.34;5094652;28;20047;-78
2021/11/20 01:46:05;;;;;;;18.00;11.40;;;;;;;15.98;54.21;102478.59;5093442;28;20441;-78
2021/11/20 01:48:54;;;;;;;18.40;11.60;;;;;;;15.95;53.89;102476.94;5087604;28;20095;-78
2021/11/20 01:51:29;;;;;;;18.02;11.23;;;;;;;15.97;54.08;102476.84;5083507;28;20092;-78
2021/11/20 01:54:14;;;;;;;14.90;10.35;;;;;;;15.94;54.13;102475.19;5088206;28;20052;-78
2021/11/20 01:56:48;;;;;;;15.98;10.30;;;;;;;15.95;54.22;102482.44;5082629;28;20044;-78
2021/11/20 01:59:36;;;;;;;16.85;10.40;;;;;;;15.94;53.91;102463.34;5083263;28;20052;-78
2021/11/20 02:02:13;;;;;;;15.23;10.35;;;;;;;15.94;54.26;102458.75;5095660;28;20043;-78
2021/11/20 02:04:42;;;;;;;16.67;10.55;;;;;;;15.92;54.48;102462.56;5092264;28;20128;-78
2021/11/20 02:07:29;;;;;;;18.02;11.32;;;;;;;15.93;54.11;102459.72;5080391;28;20052;-78
2021/11/20 02:10:17;;;;;;;16.70;10.57;;;;;;;15.91;54.21;102455.31;5072923;28;20086;-78
2021/11/20 02:12:50;;;;;;;18.95;10.38;;;;;;;15.92;53.91;102449.75;5061053;28;20080;-78
2021/11/20 02:15:35;;;;;;;17.27;11.52;;;;;;;15.93;54.03;102446.03;5077028;28;20060;-78
2021/11/20 02:18:02;;;;;;;17.75;11.25;;;;;;;15.92;53.88;102446.13;5076168;28;20054;-78
2021/11/20 02:20:38;;;;;;;18.48;11.48;;;;;;;15.94;54.16;102449.66;5093182;28;20067;-78
2021/11/20 02:23:06;;;;;;;16.50;10.15;;;;;;;15.92;53.88;102448.84;5075721;28;20447;-78
2021/11/20 02:25:32;;;;;;;18.40;11.32;;;;;;;15.91;54.15;102445.25;5074414;28;20048;-78
2021/11/20 02:27:59;;;;;;;16.17;9.70;;;;;;;15.91;54.08;102444.34;5076250;28;20080;-79
2021/11/20 02:30:31;;;;;;;18.73;11.15;;;;;;;15.94;53.96;102439.56;5092667;28;20082;-78
2021/11/20 02:33:16;;;;;;;18.70;11.50;;;;;;;15.89;54.13;102439.00;5082898;28;20095;-78
2021/11/20 02:36:06;;;;;;;16.42;10.63;;;;;;;15.91;53.86;102438.88;5090683;28;20931;-78
2021/11/20 02:38:56;;;;;;;15.30;10.38;;;;;;;15.89;54.16;102428.03;5086778;28;20051;-78
2021/11/20 02:41:26;;;;;;;17.05;10.80;;;;;;;15.89;54.36;102435.38;5082808;28;20156;-78
2021/11/20 02:43:55;;;;;;;17.52;11.10;;;;;;;15.89;54.17;102436.25;5077362;28;20051;-78
2021/11/20 02:46:26;;;;;;;17.38;11.07;;;;;;;15.90;54.21;102431.63;5092710;28;20094;-78
2021/11/20 02:48:53;;;;;;;17.77;11.23;;;;;;;15.89;54.18;102424.41;5075494;28;20070;-78
2021/11/20 02:51:23;;;;;;;16.80;11.25;;;;;;;15.91;54.09;102428.81;5092577;28;20056;-78
2021/11/20 02:54:04;;;;;;;15.95;10.52;;;;;;;15.89;54.38;102421.69;5078921;28;20047;-78
2021/11/20 02:56:41;;;;;;;19.02;11.60;;;;;;;15.92;53.96;102422.34;5084855;28;20075;-78
2021/11/20 02:59:09;;;;;;;17.73;10.60;;;;;;;15.91;53.92;102430.66;5090079;28;20399;-79
2021/11/20 03:01:37;;;;;;;17.38;11.35;;;;;;;15.91;54.28;102426.06;5074846;28;20037;-78
2021/11/20 03:04:06;;;;;;;17.40;11.40;;;;;;;15.92;53.98;102418.72;5073966;28;20137;-78
2021/11/20 03:06:34;;;;;;;19.42;12.10;;;;;;;15.91;54.00;102415.09;5079204;28;20075;-78
2021/11/20 03:09:03;;;;;;;19.58;12.32;;;;;;;15.93;54.41;102415.91;5089697;28;20063;-78
2021/11/20 03:11:29;;;;;;;18.20;11.82;;;;;;;15.91;54.15;102420.59;5075640;28;20395;-78
2021/11/20 03:14:04;;;;;;;19.40;12.02;;;;;;;15.93;53.98;102418.63;5090608;28;20486;-78
2021/11/20 03:16:32;;;;;;;18.42;11.65;;;;;;;15.93;54.07;102410.41;5063601;28;20109;-78
2021/11/20 03:18:59;;;;;;;21.35;12.13;;;;;;;15.92;53.81;102403.16;5079380;28;20418;-79
2021/11/20 03:21:26;;;;;;;19.05;12.25;;;;;;;15.93;54.13;102409.53;5077697;28;20185;-78
2021/11/20 03:24:01;;;;;;;19.65;11.98;;;;;;;15.96;53.95;102409.34;5065661;28;20059;-78
2021/11/20 03:26:28;;;;;;;20.90;13.00;;;;;;;15.92;53.66;102397.69;5078414;28;20071;-77
2021/11/20 03:28:55;;;;;;;19.52;11.88;;;;;;;15.93;53.73;102401.31;5072480;28;20049;-78
2021/11/20 03:31:22;;;;;;;21.80;13.02;;;;;;;15.93;53.69;102406.78;5061203;28;20120;-78
2021/11/20 03:33:49;;;;;;;20.52;12.60;;;;;;;15.93;53.96;102409.53;5092508;28;20432;-78
2021/11/20 03:36:16;;;;;;;23.35;12.48;;;;;;;15.93;53.59;102404.06;5068246;28;20127;-78
2021/11/20 03:38:43;;;;;;;21.33;12.52;;;;;;;15.92;54.06;102397.69;5098147;28;20624;-78
2021/11/20 03:41:10;;;;;;;21.27;12.68;;;;;;;15.92;53.73;102402.28;5078706;28;20084;-78
2021/11/20 03:43:37;;;;;;;21.55;12.93;;;;;;;15.91;53.73;102404.16;5092905;28;20066;-78
2021/11/20 03:46:04;;;;;;;21.75;12.90;;;;;;;15.91;53.52;102401.41;5093784;28;20055;-78
2021/11/20 03:48:31;;;;;;;22.85;13.85;;;;;;;15.91;53.58;102406.00;5079096;28;20048;-78
2021/11/20 03:50:58;;;;;;;21.23;12.65;;;;;;;15.89;53.66;102397.91;5085588;28;20048;-78
2021/11/20 03:53:25;;;;;;;21.58;13.15;;;;;;;15.89;54.00;102400.66;5084091;28;20048;-78
2021/11/20 03:55:52;;;;;;;21.05;12.07;;;;;;;15.91;53.73;102389.56;5082420;28;20053;-78
2021/11/20 03:58:20;;;;;;;22.67;13.02;;;;;;;15.89;53.91;102378.75;5085451;28;20044;-78
2021/11/20 04:00:54;;;;;;;21.77;12.52;;;;;;;15.91;53.64;102382.25;5090785;28;20055;-78
2021/11/20 04:03:21;;;;;;;21.50;12.45;;;;;;;15.87;54.24;102382.53;5088914;28;20048;-78
2021/11/20 04:05:50;;;;;;;20.10;12.18;;;;;;;15.90;53.78;102376.84;5090468;28;20097;-78
2021/11/20 04:08:18;;;;;;;22.25;13.23;;;;;;;15.88;53.64;102378.84;5091645;28;20047;-78
2021/11/20 04:10:47;;;;;;;22.00;11.88;;;;;;;15.88;53.81;102376.09;5090901;28;20072;-78
2021/11/20 04:13:14;;;;;;;22.55;12.43;;;;;;;15.88;53.84;102384.31;5059397;28;20188;-78
2021/11/20 04:15:40;;;;;;;21.80;12.00;;;;;;;15.87;53.67;102383.44;5071388;28;20060;-78
2021/11/20 04:18:07;;;;;;;23.27;13.05;;;;;;;15.87;53.77;102379.81;5077926;28;20064;-78
2021/11/20 04:20:34;;;;;;;22.23;13.50;;;;;;;15.87;54.04;102377.94;5073467;28;20072;-78
2021/11/20 04:23:01;;;;;;;22.58;13.02;;;;;;;15.87;53.80;102379.81;5085123;28;20130;-78
2021/11/20 04:25:28;;;;;;;22.05;13.10;;;;;;;15.87;53.55;102383.44;5083691;28;20060;-78
2021/11/20 04:27:55;;;;;;;22.13;12.43;;;;;;;15.87;53.87;102380.69;5079395;28;20464;-78
2021/11/20 04:30:22;;;;;;;23.33;12.43;;;;;;;15.87;54.08;102375.22;5084414;28;20048;-78
2021/11/20 04:32:50;;;;;;;21.05;12.63;;;;;;;15.88;53.84;102376.09;5057392;28;20072;-79
2021/11/20 04:35:20;;;;;;;20.67;12.30;;;;;;;15.88;53.69;102376.97;5068464;28;20414;-78
2021/11/20 04:37:47;;;;;;;21.25;12.32;;;;;;;15.87;53.98;102375.22;5058595;28;20541;-78
2021/11/20 04:40:16;;;;;;;21.48;12.30;;;;;;;15.87;53.74;102383.44;5071161;28;20121;-78
2021/11/20 04:42:43;;;;;;;21.73;13.05;;;;;;;15.87;54.03;102377.94;5080972;28;20048;-79
2021/11/20 04:45:14;;;;;;;24.25;12.90;;;;;;;15.89;53.94;102372.38;5055556;28;20075;-78
2021/11/20 04:47:41;;;;;;;21.00;12.27;;;;;;;15.87;53.89;102371.59;5064712;28;20507;-78
2021/11/20 04:50:09;;;;;;;20.30;11.98;;;;;;;15.88;53.70;102374.25;5084289;28;20502;-78
2021/11/20 04:52:37;;;;;;;20.40;10.73;;;;;;;15.88;53.94;102370.63;5086796;28;20569;-78
2021/11/20 04:55:05;;;;;;;19.85;11.70;;;;;;;15.89;53.92;102366.91;5086333;28;20109;-78
2021/11/20 04:57:32;;;;;;;23.23;12.10;;;;;;;15.86;53.97;102370.72;5064618;28;20070;-77
2021/11/20 04:59:59;;;;;;;20.70;11.93;;;;;;;15.87;53.49;102367.00;5073087;28;20052;-78
2021/11/20 05:02:27;;;;;;;20.27;11.55;;;;;;;15.88;53.46;102363.28;5089233;28;20064;-78
2021/11/20 05:04:55;;;;;;;24.33;13.13;;;;;;;15.86;54.04;102358.88;5089989;28;20055;-79
2021/11/20 05:07:21;;;;;;;22.48;12.13;;;;;;;15.87;53.83;102367.00;5077631;28;20056;-78
2021/11/20 05:09:48;;;;;;;23.63;12.55;;;;;;;15.85;53.66;102363.47;5085356;28;20079;-78
2021/11/20 05:12:14;;;;;;;21.50;12.40;;;;;;;15.85;53.59;102366.22;5078019;28;20040;-78
2021/11/20 05:14:41;;;;;;;22.92;12.93;;;;;;;15.85;53.71;102359.84;5078706;28;20060;-78
2021/11/20 05:17:08;;;;;;;22.08;12.32;;;;;;;15.85;53.65;102354.38;5072918;28;20091;-77
2021/11/20 05:19:36;;;;;;;22.20;12.38;;;;;;;15.84;53.91;102356.22;5084529;28;20106;-78
2021/11/20 05:22:03;;;;;;;21.70;12.45;;;;;;;15.84;53.77;102366.31;5087659;28;20053;-79
2021/11/20 05:24:30;;;;;;;23.15;12.77;;;;;;;15.83;53.51;102357.22;5080912;28;20071;-79
2021/11/20 05:26:56;;;;;;;22.40;12.30;;;;;;;15.84;53.69;102358.97;5094258;28;20482;-78
2021/11/20 05:32:08;;;;;;;21.85;12.45;;;;;;;15.81;53.71;102356.41;5077063;28;20083;-78
2021/11/20 05:34:36;;;;;;;21.08;11.90;;;;;;;15.82;53.38;102351.81;5090509;28;20056;-78
2021/11/20 05:37:03;;;;;;;22.30;11.50;;;;;;;15.81;53.48;102347.34;5066428;28;20105;-78
2021/11/20 05:39:31;;;;;;;19.75;11.30;;;;;;;15.81;53.81;102344.63;5073357;28;20080;-78
2021/11/20 05:41:59;;;;;;;18.90;11.55;;;;;;;15.80;53.95;102345.59;5088818;28;20044;-78
2021/11/20 05:44:27;;;;;;;19.88;11.00;;;;;;;15.80;53.81;102351.06;5084966;28;20426;-78
2021/11/20 05:46:58;;;;;;;18.83;10.40;;;;;;;15.80;53.96;102343.72;5062977;28;20491;-78
2021/11/20 05:49:31;;;;;;;20.75;11.80;;;;;;;15.82;53.53;102344.50;5072727;28;20071;-78
2021/11/20 05:51:58;;;;;;;22.00;12.55;;;;;;;15.79;53.75;102335.59;5093831;28;20088;-78
2021/11/20 05:54:29;;;;;;;22.65;12.05;;;;;;;15.81;53.99;102336.41;5085091;28;20055;-78
2021/11/20 05:56:55;;;;;;;21.45;11.73;;;;;;;15.81;53.92;102328.19;5082496;28;20085;-78
2021/11/20 05:59:23;;;;;;;19.63;11.20;;;;;;;15.82;53.85;102325.31;5087155;28;20083;-78
2021/11/20 06:01:51;;;;;;;20.05;11.93;;;;;;;15.83;53.99;102323.47;5088897;28;20080;-78
2021/11/20 06:04:18;;;;;;;19.17;10.80;;;;;;;15.83;53.86;102324.34;5071987;28;20048;-78
2021/11/20 06:06:45;;;;;;;20.80;11.60;;;;;;;15.84;53.69;102322.47;5082636;28;20055;-78
2021/11/20 06:09:12;;;;;;;18.95;10.35;;;;;;;15.85;54.14;102318.75;5074389;28;20052;-78
2021/11/20 06:11:39;;;;;;;20.38;11.40;;;;;;;15.85;53.88;102316.03;5092176;28;20044;-78
2021/11/20 06:14:06;;;;;;;19.70;11.55;;;;;;;15.85;53.98;102310.56;5083851;28;20101;-79
2021/11/20 06:16:33;;;;;;;18.42;10.77;;;;;;;15.86;53.72;102309.56;5090725;28;20537;-78
2021/11/20 06:19:00;;;;;;;21.00;11.30;;;;;;;15.86;53.96;102312.31;5075783;28;20048;-78
2021/11/20 06:21:27;;;;;;;17.13;11.32;;;;;;;15.86;54.06;102312.31;5094117;28;20055;-78
2021/11/20 06:23:54;;;;;;;19.42;11.13;;;;;;;15.88;53.80;102303.03;5066075;28;20044;-78
2021/11/20 06:26:21;;;;;;;20.88;11.70;;;;;;;15.88;53.77;102313.09;5077172;28;21717;-78
2021/11/20 06:28:48;;;;;;;20.20;10.65;;;;;;;15.88;53.61;102310.34;5072796;28;20044;-78
2021/11/20 06:31:15;;;;;;;18.95;11.13;;;;;;;15.90;53.95;102305.63;5080215;28;20097;-78
2021/11/20 06:33:43;;;;;;;21.73;11.75;;;;;;;15.89;53.45;102307.53;5089512;28;20048;-78
2021/11/20 06:36:10;;;;;;;17.60;10.50;;;;;;;15.88;54.00;102304.88;5063250;28;20055;-79
2021/11/20 06:38:39;;;;;;;18.65;10.82;;;;;;;15.89;53.66;102306.66;5092434;28;20101;-78
2021/11/20 06:41:08;;;;;;;18.02;10.75;;;;;;;15.91;53.57;102319.22;5087611;28;20052;-78
2021/11/20 06:43:35;;;;;;;17.35;10.00;;;;;;;15.89;53.96;102312.13;5085388;28;20051;-78
2021/11/20 06:46:07;;;;;;;19.45;10.48;;;;;;;15.91;53.63;102312.88;5094996;28;20502;-78
2021/11/20 06:48:35;;;;;;;19.45;10.93;;;;;;;15.89;53.34;102313.00;5092012;28;20050;-78
2021/11/20 06:51:02;;;;;;;19.05;11.05;;;;;;;15.89;53.67;102312.13;5070072;28;20055;-78
2021/11/20 06:53:30;;;;;;;20.15;10.70;;;;;;;15.89;53.34;102314.88;5090648;28;20105;-78
2021/11/20 06:55:58;;;;;;;19.23;10.90;;;;;;;15.88;53.58;102316.72;5074220;28;20128;-78
2021/11/20 07:01:07;;;;;;;18.38;10.73;;;;;;;15.89;53.53;102318.47;5085715;28;20829;-78
2021/11/20 07:03:40;;;;;;;17.85;10.40;;;;;;;15.90;53.01;102324.81;5084414;28;20445;-79
2021/11/20 07:06:19;;;;;;;17.40;10.18;;;;;;;15.88;53.01;102324.94;5088104;28;20052;-78
2021/11/20 07:08:48;;;;;;;18.40;10.60;;;;;;;15.87;53.19;102325.03;5083849;28;20101;-78
2021/11/20 07:11:15;;;;;;;19.30;10.98;;;;;;;15.88;53.48;102321.31;5086817;28;20136;-78
2021/11/20 07:13:42;;;;;;;18.73;11.13;;;;;;;15.86;53.59;102320.53;5085505;28;20091;-78
2021/11/20 07:16:11;;;;;;;20.63;11.13;;;;;;;15.86;53.07;102320.53;5072144;28;20071;-78
2021/11/20 07:18:39;;;;;;;20.10;11.60;;;;;;;15.86;52.93;102326.88;5073354;28;20056;-79
2021/11/20 07:21:06;;;;;;;18.38;10.30;;;;;;;15.86;53.16;102323.28;5082468;28;20113;-79
2021/11/20 07:23:34;;;;;;;19.45;11.18;;;;;;;15.85;53.07;102316.91;5073605;28;20048;-78
2021/11/20 07:26:01;;;;;;;19.02;11.85;;;;;;;15.85;53.46;102316.91;5082733;28;20062;-79
2021/11/20 07:28:28;;;;;;;18.70;11.20;;;;;;;15.86;53.35;102317.78;5069364;28;20067;-78
2021/11/20 07:30:55;;;;;;;20.85;11.95;;;;;;;15.84;53.16;102317.00;5088222;28;20449;-79
2021/11/20 07:33:22;;;;;;;19.92;11.10;;;;;;;15.84;53.33;102314.25;5093364;28;20070;-79
2021/11/20 07:35:53;;;;;;;18.10;10.48;;;;;;;15.86;52.93;102312.31;5079225;28;20048;-78
2021/11/20 07:38:24;;;;;;;17.95;11.25;;;;;;;15.84;52.88;102298.72;5089012;28;20052;-79
2021/11/20 07:40:51;;;;;;;16.65;10.45;;;;;;;15.83;53.35;102301.53;5072270;28;20090;-79
2021/11/20 07:43:18;;;;;;;17.88;10.32;;;;;;;15.83;53.03;102310.66;5083539;28;20113;-78
2021/11/20 07:45:45;;;;;;;18.67;10.38;;;;;;;15.82;53.20;102313.47;5077174;28;20090;-79
2021/11/20 07:48:21;;;;;;;18.50;11.23;;;;;;;15.85;52.94;102300.47;5063155;28;20078;-78
2021/11/20 07:50:49;;;;;;;17.38;10.23;;;;;;;15.82;52.97;102306.16;5067086;28;20056;-78
2021/11/20 07:53:24;;;;;;;20.33;11.13;;;;;;;15.84;52.89;102309.66;5055854;28;20052;-78
2021/11/20 07:55:53;;;;;;;22.35;11.32;;;;;;;15.80;52.78;102299.91;5086482;28;20048;-78
2021/11/20 07:58:21;;;;;;;19.92;11.45;;;;;;;15.82;52.95;102297.94;5059263;28;20101;-79
2021/11/20 08:00:49;;;;;;;20.27;11.13;;;;;;;15.81;52.95;102300.78;5069638;28;20056;-78
2021/11/20 08:03:17;;;;;;;18.65;10.68;;;;;;;15.79;52.62;102289.06;5070939;28;20122;-78
2021/11/20 08:05:46;;;;;;;20.67;11.50;;;;;;;15.80;52.72;102304.50;5089552;28;20382;-78
2021/11/20 08:08:12;;;;;;;18.27;10.18;;;;;;;15.80;52.92;102299.03;5083007;28;20098;-79
2021/11/20 08:10:40;;;;;;;18.45;10.50;;;;;;;15.80;53.29;102290.81;5083833;28;20055;-79
2021/11/20 08:13:09;;;;;;;18.65;11.10;;;;;;;15.79;53.01;102289.06;5073069;28;20049;-78
2021/11/20 08:15:36;;;;;;;19.50;10.65;;;;;;;15.79;53.04;102284.47;5083011;28;20056;-79
2021/11/20 08:18:03;;;;;;;17.85;9.98;;;;;;;15.80;53.25;102286.22;5078059;28;20052;-78
2021/11/20 08:20:36;;;;;;;19.63;11.20;;;;;;;15.81;52.93;102271.50;5078780;28;20048;-78
2021/11/20 08:23:12;;;;;;;19.73;10.65;;;;;;;15.81;52.76;102273.41;5058859;28;20044;-79
2021/11/20 08:25:42;;;;;;;19.23;10.23;;;;;;;15.80;52.66;102269.78;5084895;28;20056;-78
2021/11/20 08:28:15;;;;;;;18.10;10.10;;;;;;;15.82;52.82;102269.66;5073669;28;20106;-78
2021/11/20 08:30:43;;;;;;;17.88;10.30;;;;;;;15.81;52.78;102265.19;5079650;28;20072;-78
2021/11/20 08:33:10;;;;;;;19.33;10.82;;;;;;;15.80;52.75;102256.09;5078870;28;20094;-79
2021/11/20 08:35:37;;;;;;;18.88;10.75;;;;;;;15.81;52.84;102255.09;5070628;28;20055;-78
2021/11/20 08:38:08;;;;;;;18.13;10.95;;;;;;;15.83;52.17;102255.88;5085739;28;20048;-78
2021/11/20 08:40:37;;;;;;;17.70;10.77;;;;;;;15.79;52.51;102254.34;5072080;28;20056;-78
2021/11/20 08:43:04;;;;;;;18.35;11.07;;;;;;;15.81;52.85;102262.44;5081978;28;20076;-78
2021/11/20 08:45:34;;;;;;;18.27;11.13;;;;;;;15.82;52.51;102258.72;5053962;28;20051;-78
2021/11/20 08:48:03;;;;;;;19.27;11.30;;;;;;;15.82;52.97;102261.44;5085218;28;20048;-79
2021/11/20 08:50:37;;;;;;;16.85;10.30;;;;;;;15.82;52.16;102254.09;5070045;28;20060;-78
2021/11/20 08:53:05;;;;;;;16.83;11.20;;;;;;;15.79;52.52;102254.34;5078258;28;20040;-79
2021/11/20 08:55:32;;;;;;;17.40;12.07;;;;;;;15.81;52.54;102255.09;5085755;28;20052;-78
2021/11/20 08:57:59;;;;;;;18.30;11.25;;;;;;;15.79;52.59;102246.13;5086261;28;20097;-79
2021/11/20 09:00:43;;;;;;;19.80;11.63;;;;;;;15.84;52.12;102246.69;5091915;28;20047;-79
2021/11/20 09:03:48;;;;;;;17.02;10.98;;;;;;;15.77;52.34;102239.84;5074574;28;20394;-78
2021/11/20 09:06:21;;;;;;;18.67;11.80;;;;;;;15.79;52.66;102243.38;5061263;28;20111;-78
2021/11/20 09:08:59;;;;;;;21.55;12.48;;;;;;;15.81;52.23;102243.28;5094404;28;20055;-78
2021/11/20 09:11:29;;;;;;;18.33;11.13;;;;;;;15.82;52.15;102242.28;5039033;28;20052;-80
2021/11/20 09:14:01;;;;;;;21.88;12.20;;;;;;;15.83;52.40;102241.28;5093374;28;20383;-78
2021/11/20 09:16:28;;;;;;;19.60;11.38;;;;;;;15.78;52.57;102246.22;5076653;28;20487;-78
2021/11/20 09:18:57;;;;;;;18.58;10.65;;;;;;;15.82;52.28;102239.53;5095394;28;20048;-78
2021/11/20 09:21:25;;;;;;;17.88;11.30;;;;;;;15.83;52.55;102238.56;5080669;28;20094;-78
2021/11/20 09:23:53;;;;;;;16.70;10.52;;;;;;;15.81;52.48;102238.66;5092074;28;20054;-78
2021/11/20 09:26:23;;;;;;;19.42;11.50;;;;;;;15.83;52.13;102231.22;5089689;28;20052;-78
2021/11/20 09:28:58;;;;;;;18.10;10.77;;;;;;;15.83;52.39;102238.56;5088449;28;20052;-79
2021/11/20 09:31:28;;;;;;;19.10;11.27;;;;;;;15.83;52.28;102233.97;5085291;28;20060;-78
2021/11/20 09:33:56;;;;;;;17.13;10.90;;;;;;;15.83;52.44;102227.59;5085589;28;20079;-78
2021/11/20 09:36:25;;;;;;;17.17;10.55;;;;;;;15.85;52.21;102232.00;5074882;28;20112;-78
2021/11/20 09:38:52;;;;;;;15.27;10.13;;;;;;;15.85;52.18;102228.38;5066474;28;20126;-78
2021/11/20 09:41:47;;;;;;;17.45;11.27;;;;;;;15.83;51.82;102231.22;5075808;28;20084;-78
2021/11/20 09:44:16;;;;;;;17.80;10.27;;;;;;;15.85;52.28;102228.38;5092226;28;20368;-78
2021/11/20 09:46:49;;;;;;;15.75;10.13;;;;;;;15.85;52.25;102220.16;5095017;28;20048;-77
2021/11/20 09:49:20;;;;;;;;;;;;;;;15.60;52.41;102231.88;5063047;28;20151;-77
2021/11/20 09:51:51;;;;;;;12.07;7.88;;;;;;;15.82;51.95;102225.84;5086868;28;19970;-76
2021/11/20 09:54:21;;;;;;;14.80;9.10;;;;;;;15.85;51.77;102229.25;5080878;28;20056;-78
2021/11/20 09:56:50;;;;;;;14.05;9.00;;;;;;;15.85;51.94;102222.91;5086878;28;20096;-78
2021/11/20 09:59:45;;;;;;;13.85;9.43;;;;;;;15.83;51.76;102225.75;5043134;28;20051;-80
2021/11/20 10:02:24;;;;;;;14.55;9.30;;;;;;;15.86;52.21;102213.72;5043860;28;20061;-79
2021/11/20 10:04:54;;;;;;;16.02;9.75;;;;;;;15.85;52.32;102220.16;5013193;28;20090;-80
2021/11/20 10:07:31;;;;;;;14.23;9.52;;;;;;;15.85;52.01;102211.94;5046561;28;20049;-80
2021/11/20 10:10:17;;;;;;;15.25;9.75;;;;;;;15.88;51.63;102211.75;5024334;28;20057;-80
2021/11/20 10:12:50;;;;;;;14.07;9.55;;;;;;;15.87;51.41;102220.94;5031764;28;20053;-78
2021/11/20 10:15:26;;;;;;;13.98;8.98;;;;;;;15.86;51.41;102209.13;5035017;28;20144;-78
2021/11/20 10:18:02;;;;;;;14.30;8.98;;;;;;;15.84;51.29;102210.19;5042531;28;20052;-78
2021/11/20 10:20:47;;;;;;;12.82;8.52;;;;;;;15.83;51.61;102200.22;5067006;28;20048;-77
2021/11/20 10:23:49;;;;;;;12.25;8.00;;;;;;;15.81;51.11;102199.47;5043366;28;20045;-77
2021/11/20 10:26:45;;;;;;;13.23;8.23;;;;;;;15.82;51.44;102198.44;4989372;28;20531;-78
2021/11/20 10:29:36;;;;;;;12.20;7.93;;;;;;;15.84;51.45;102199.25;5030480;28;20394;-78
2021/11/20 10:32:17;;;;;;;14.38;8.55;;;;;;;15.85;51.05;102192.78;5045489;28;20454;-78
2021/11/20 10:34:47;;;;;;;13.27;7.97;;;;;;;15.85;51.52;102181.81;5056227;28;20045;-79
2021/11/20 10:37:19;;;;;;;12.02;7.93;;;;;;;15.85;51.64;102179.97;5055041;28;20056;-78
2021/11/20 10:39:50;;;;;;;11.93;8.27;;;;;;;15.83;51.69;102179.19;5066603;28;20053;-78
2021/11/20 10:42:30;;;;;;;13.15;7.93;;;;;;;15.86;51.63;102183.59;5055734;28;20076;-77
2021/11/20 10:45:15;;;;;;;12.73;8.13;;;;;;;15.87;51.20;102171.66;5047160;28;20060;-78
2021/11/20 10:48:06;;;;;;;12.52;8.48;;;;;;;15.85;51.32;102158.06;5057256;28;21925;-79
2021/11/20 10:50:39;;;;;;;15.10;8.50;;;;;;;15.86;51.23;102151.59;5063380;28;20907;-79
2021/11/20 10:53:33;;;;;;;11.85;7.65;;;;;;;15.86;51.22;102151.59;5059983;28;20049;-81
2021/11/20 10:56:27;;;;;;;11.50;7.75;;;;;;;15.83;51.31;102145.44;5043527;28;20045;-79
2021/11/20 10:59:15;;;;;;;12.07;7.85;;;;;;;15.84;51.48;102144.47;5040094;28;20056;-79
2021/11/20 11:01:42;;;;;;;12.52;7.97;;;;;;;15.87;51.70;102138.78;5054259;28;20089;-82
2021/11/20 11:05:07;;;;;;;12.73;7.82;;;;;;;15.84;51.54;102134.38;5048863;28;20070;-78
2021/11/20 11:07:50;;;;;;;11.00;6.90;;;;;;;15.89;51.43;102129.50;5027980;28;20552;-77
2021/11/20 11:10:31;;;;;;;10.75;7.22;;;;;;;15.92;50.86;102125.63;5067070;28;20048;-78
2021/11/20 11:13:22;;;;;;;11.60;7.63;;;;;;;15.93;50.43;102130.13;5049978;28;20073;-78
2021/11/20 11:16:01;;;;;;;12.02;7.72;;;;;;;15.92;51.04;102125.63;5048127;28;20055;-79
2021/11/20 11:18:43;;;;;;;11.10;7.43;;;;;;;15.93;50.91;102124.66;5058456;28;20045;-78
2021/11/20 11:21:39;;;;;;;10.18;7.20;;;;;;;15.91;50.78;102118.41;5054089;28;20048;-78
2021/11/20 11:24:28;;;;;;;10.90;7.00;;;;;;;15.92;50.78;102115.56;5072474;28;20074;-78
2021/11/20 11:27:01;;;;;;;11.63;7.60;;;;;;;15.94;50.53;102115.47;5065638;28;20394;-78
2021/11/20 11:29:52;;;;;;;10.50;7.43;;;;;;;15.94;50.48;102107.25;5078563;28;20049;-78
2021/11/20 11:32:19;;;;;;;10.00;6.85;;;;;;;15.90;51.06;102101.09;5069407;28;20483;-78
2021/11/20 11:34:58;;;;;;;10.07;6.85;;;;;;;15.94;49.84;102093.56;5064708;28;20110;-78
2021/11/20 11:37:54;;;;;;;10.68;6.90;;;;;;;15.92;50.50;102093.66;5062260;28;20048;-78